createdAt,value
2022-08-29T00:03:00.441Z,22.91
2022-08-29T00:06:06.785Z,21.87
2022-08-29T00:09:12.766Z,21.16
2022-08-29T00:12:23.212Z,21.12
2022-08-29T00:15:29.850Z,23.21
2022-08-29T00:18:37.935Z,22.37
2022-08-29T00:21:46.403Z,19.93
2022-08-29T00:24:52.088Z,19.59
2022-08-29T00:28:00.859Z,18.49
2022-08-29T00:31:06.941Z,18.58
2022-08-29T00:34:12.893Z,18.00
2022-08-29T00:37:18.429Z,17.69
2022-08-29T00:40:30.872Z,18.13
2022-08-29T00:43:40.615Z,17.70
2022-08-29T00:47:00.163Z,16.60
2022-08-29T00:50:10.564Z,16.88
2022-08-29T00:53:20.696Z,15.49
2022-08-29T00:56:28.797Z,16.69
2022-08-29T00:59:42.677Z,16.21
2022-08-29T01:02:49.051Z,15.89
2022-08-29T01:05:55.610Z,19.23
2022-08-29T01:09:02.205Z,16.07
2022-08-29T01:12:20.891Z,15.11
2022-08-29T01:15:33.142Z,14.96
2022-08-29T01:18:44.150Z,15.26
2022-08-29T01:22:05.917Z,15.60
2022-08-29T01:25:19.725Z,16.70
2022-08-29T01:28:31.775Z,14.23
2022-08-29T01:31:56.717Z,13.57
2022-08-29T01:35:03.666Z,13.16
2022-08-29T01:38:09.295Z,12.69
2022-08-29T01:41:18.145Z,12.61
2022-08-29T01:44:26.682Z,12.28
2022-08-29T01:47:38.079Z,11.56
2022-08-29T01:50:44.134Z,12.01
2022-08-29T01:53:50.161Z,11.42
2022-08-29T01:56:58.577Z,11.49
2022-08-29T02:00:08.188Z,11.01
2022-08-29T02:03:15.845Z,10.62
2022-08-29T02:06:21.636Z,10.66
2022-08-29T02:09:28.115Z,10.09
2022-08-29T02:12:44.376Z,10.36
2022-08-29T02:15:50.046Z,11.18
2022-08-29T02:18:55.977Z,11.05
2022-08-29T02:22:08.617Z,12.47
2022-08-29T02:25:36.923Z,14.13
2022-08-29T02:28:57.675Z,13.40
2022-08-29T02:32:03.272Z,12.90
2022-08-29T02:35:15.301Z,13.18
2022-08-29T02:38:25.977Z,11.99
2022-08-29T02:41:31.956Z,11.69
2022-08-29T02:44:40.349Z,11.02
2022-08-29T02:47:45.877Z,11.50
2022-08-29T02:50:56.552Z,11.82
2022-08-29T02:54:03.539Z,11.13
2022-08-29T02:57:09.929Z,11.71
2022-08-29T03:00:27.242Z,11.36
2022-08-29T03:03:32.947Z,11.46
2022-08-29T03:06:38.517Z,11.51
2022-08-29T03:09:44.127Z,11.75
2022-08-29T03:12:50.643Z,11.96
2022-08-29T03:15:58.943Z,12.14
2022-08-29T03:19:04.474Z,12.10
2022-08-29T03:22:11.473Z,12.21
2022-08-29T03:25:18.357Z,13.93
2022-08-29T03:28:24.153Z,14.56
2022-08-29T03:31:32.755Z,13.80
2022-08-29T03:34:38.379Z,14.10
2022-08-29T03:37:44.255Z,13.84
2022-08-29T03:40:51.383Z,13.89
2022-08-29T03:43:59.436Z,14.63
2022-08-29T03:47:09.685Z,14.69
2022-08-29T03:50:21.821Z,15.00
2022-08-29T03:53:27.362Z,14.21
2022-08-29T03:56:32.893Z,14.54
2022-08-29T03:59:38.942Z,15.05
2022-08-29T04:02:52.031Z,14.47
2022-08-29T04:05:58.035Z,14.48
2022-08-29T04:09:07.775Z,15.29
2022-08-29T04:12:15.439Z,14.47
2022-08-29T04:15:28.511Z,14.79
2022-08-29T04:18:38.555Z,14.70
2022-08-29T04:21:55.527Z,14.72
2022-08-29T04:25:03.091Z,14.90
2022-08-29T04:28:12.874Z,15.10
2022-08-29T04:31:23.309Z,15.71
2022-08-29T04:34:38.535Z,18.46
2022-08-29T04:38:12.891Z,15.69
2022-08-29T04:41:18.594Z,16.09
2022-08-29T04:44:24.359Z,16.13
2022-08-29T04:47:30.164Z,16.05
2022-08-29T04:50:38.340Z,16.98
2022-08-29T04:53:44.251Z,16.55
2022-08-29T04:56:49.800Z,16.07
2022-08-29T04:59:59.042Z,16.56
2022-08-29T05:03:15.846Z,16.33
2022-08-29T05:06:26.990Z,15.96
2022-08-29T05:09:32.700Z,15.83
2022-08-29T05:12:39.661Z,16.33
2022-08-29T05:15:45.380Z,16.34
2022-08-29T05:18:51.057Z,15.01
2022-08-29T05:21:59.334Z,15.29
2022-08-29T05:25:05.228Z,16.11
2022-08-29T05:28:14.053Z,16.05
2022-08-29T05:31:22.510Z,16.25
2022-08-29T05:34:34.330Z,15.69
2022-08-29T05:37:46.376Z,16.14
2022-08-29T05:40:52.119Z,16.43
2022-08-29T05:43:57.791Z,20.46
2022-08-29T05:47:03.918Z,20.30
2022-08-29T05:50:24.903Z,16.39
2022-08-29T05:53:34.950Z,15.92
2022-08-29T05:56:40.536Z,15.85
2022-08-29T05:59:46.167Z,15.54
2022-08-29T06:02:51.827Z,15.91
2022-08-29T06:05:57.439Z,16.27
2022-08-29T06:09:09.109Z,15.87
2022-08-29T06:12:18.347Z,15.49
2022-08-29T06:15:30.144Z,15.33
2022-08-29T06:18:42.569Z,15.18
2022-08-29T06:21:48.458Z,15.30
2022-08-29T06:24:57.871Z,15.75
2022-08-29T06:28:08.658Z,15.81
2022-08-29T06:31:22.976Z,16.76
2022-08-29T06:34:28.856Z,18.06
2022-08-29T06:37:40.901Z,16.69
2022-08-29T06:40:59.651Z,18.38
2022-08-29T06:44:06.806Z,18.15
2022-08-29T06:47:12.815Z,18.03
2022-08-29T06:50:19.559Z,17.60
2022-08-29T06:53:31.611Z,18.09
2022-08-29T06:56:42.452Z,18.08
2022-08-29T06:59:48.083Z,18.32
2022-08-29T07:02:55.512Z,18.59
2022-08-29T07:06:01.085Z,19.32
2022-08-29T07:09:12.146Z,20.32
2022-08-29T07:12:20.293Z,18.52
2022-08-29T07:15:30.147Z,17.87
2022-08-29T07:18:39.444Z,18.20
2022-08-29T07:21:45.088Z,18.50
2022-08-29T07:24:50.785Z,19.03
2022-08-29T07:27:58.884Z,18.59
2022-08-29T07:31:04.741Z,17.92
2022-08-29T07:34:10.935Z,17.42
2022-08-29T07:37:28.871Z,16.21
2022-08-29T07:40:34.572Z,16.48
2022-08-29T07:43:43.597Z,15.40
2022-08-29T07:46:49.420Z,15.24
2022-08-29T07:49:54.950Z,15.46
2022-08-29T07:53:01.030Z,15.42
2022-08-29T07:56:10.680Z,13.87
2022-08-29T07:59:21.398Z,14.12
2022-08-29T08:02:32.095Z,13.39
2022-08-29T08:05:38.584Z,13.04
2022-08-29T08:08:50.717Z,14.33
2022-08-29T08:11:56.514Z,12.68
2022-08-29T08:15:11.674Z,13.55
2022-08-29T08:18:19.582Z,13.70
2022-08-29T08:21:33.497Z,12.87
2022-08-29T08:24:39.374Z,13.37
2022-08-29T08:27:44.990Z,12.65
2022-08-29T08:30:53.298Z,12.62
2022-08-29T08:33:59.545Z,12.40
2022-08-29T08:37:28.052Z,12.23
2022-08-29T08:40:50.933Z,11.64
2022-08-29T08:44:01.316Z,12.45
2022-08-29T08:47:20.738Z,11.40
2022-08-29T08:50:45.334Z,11.26
2022-08-29T08:53:57.429Z,11.30
2022-08-29T08:57:18.571Z,10.88
2022-08-29T09:00:24.354Z,10.88
2022-08-29T09:04:25.728Z,10.42
2022-08-29T09:08:06.340Z,10.06
2022-08-29T09:11:29.604Z,8.91
2022-08-29T09:14:59.648Z,9.93
2022-08-29T09:18:23.900Z,9.63
2022-08-29T09:21:52.978Z,8.95
2022-08-29T09:25:09.945Z,9.19
2022-08-29T09:28:23.164Z,9.43
2022-08-29T09:31:36.336Z,9.72
2022-08-29T09:38:28.322Z,8.92
2022-08-29T09:41:33.890Z,7.70
2022-08-29T09:44:40.454Z,8.68
2022-08-29T09:47:46.068Z,8.04
2022-08-29T09:50:51.670Z,8.48
2022-08-29T09:54:28.812Z,8.13
2022-08-29T09:57:44.221Z,8.46
2022-08-29T10:01:11.793Z,8.18
2022-08-29T10:04:41.312Z,7.83
2022-08-29T10:07:53.452Z,7.77
2022-08-29T10:11:09.141Z,7.50
2022-08-29T10:14:29.733Z,7.55
2022-08-29T10:18:04.499Z,7.74
2022-08-29T10:21:31.951Z,8.39
2022-08-29T10:25:00.745Z,9.08
2022-08-29T10:28:37.121Z,8.90
2022-08-29T10:32:05.125Z,8.77
2022-08-29T10:35:22.019Z,10.42
2022-08-29T10:38:48.944Z,9.44
2022-08-29T10:42:04.725Z,9.25
2022-08-29T10:45:36.402Z,10.50
2022-08-29T10:49:03.245Z,9.53
2022-08-29T10:52:27.827Z,8.86
2022-08-29T10:55:52.393Z,7.90
2022-08-29T10:59:13.400Z,6.74
2022-08-29T11:02:35.669Z,6.47
2022-08-29T11:05:50.807Z,7.03
2022-08-29T11:09:10.323Z,7.70
2022-08-29T11:12:26.903Z,7.28
2022-08-29T11:15:48.397Z,7.39
2022-08-29T11:19:22.065Z,7.16
2022-08-29T11:22:53.822Z,7.59
2022-08-29T11:26:10.997Z,8.33
2022-08-29T11:29:33.190Z,7.61
2022-08-29T11:33:00.422Z,6.80
2022-08-29T11:36:43.540Z,9.10
2022-08-29T11:40:47.266Z,8.84
2022-08-29T11:43:57.712Z,7.95
2022-08-29T11:47:28.328Z,6.85
2022-08-29T11:50:39.224Z,6.72
2022-08-29T11:53:50.355Z,6.01
2022-08-29T11:57:48.767Z,6.12
2022-08-29T12:00:57.678Z,6.19
2022-08-29T12:04:12.514Z,5.86
2022-08-29T12:07:27.742Z,5.71
2022-08-29T12:10:59.003Z,6.09
2022-08-29T12:14:08.344Z,6.25
2022-08-29T12:18:01.914Z,6.29
2022-08-29T12:21:48.826Z,6.54
2022-08-29T12:25:00.159Z,6.14
2022-08-29T12:28:11.059Z,6.33
2022-08-29T12:32:18.143Z,6.23
2022-08-29T12:36:04.132Z,6.31
2022-08-29T12:39:56.847Z,6.39
2022-08-29T12:43:42.803Z,6.50
2022-08-29T12:47:03.925Z,6.87
2022-08-29T12:50:22.086Z,6.70
2022-08-29T12:53:33.580Z,7.82
2022-08-29T12:56:45.533Z,8.08
2022-08-29T12:59:55.638Z,7.05
2022-08-29T13:03:14.956Z,6.82
2022-08-29T13:06:25.523Z,6.87
2022-08-29T13:09:56.046Z,6.33
2022-08-29T13:13:12.002Z,6.62
2022-08-29T13:16:33.233Z,6.94
2022-08-29T13:19:43.854Z,6.52
2022-08-29T13:22:49.399Z,6.65
2022-08-29T13:26:01.397Z,6.14
2022-08-29T13:29:32.415Z,5.84
2022-08-29T13:32:38.280Z,5.65
2022-08-29T13:35:46.716Z,6.03
2022-08-29T13:39:49.044Z,5.22
2022-08-29T13:42:54.807Z,5.01
2022-08-29T13:46:22.473Z,4.79
2022-08-29T13:49:32.468Z,4.49
2022-08-29T13:52:40.919Z,5.62
2022-08-29T13:55:47.065Z,5.11
2022-08-29T13:58:52.777Z,5.16
2022-08-29T14:02:13.636Z,5.12
2022-08-29T14:05:20.307Z,5.28
2022-08-29T14:08:30.083Z,4.65
2022-08-29T14:11:36.385Z,4.93
2022-08-29T14:14:42.075Z,5.15
2022-08-29T14:17:51.824Z,5.15
2022-08-29T14:20:57.328Z,4.56
2022-08-29T14:24:06.183Z,4.51
2022-08-29T14:27:12.785Z,4.58
2022-08-29T14:30:23.479Z,4.62
2022-08-29T14:33:29.671Z,4.50
2022-08-29T14:36:35.412Z,4.18
2022-08-29T14:39:45.359Z,4.35
2022-08-29T14:42:55.616Z,4.40
2022-08-29T14:46:01.279Z,4.31
2022-08-29T14:49:08.035Z,4.33
2022-08-29T14:52:15.425Z,4.35
2022-08-29T14:55:24.746Z,4.35
2022-08-29T14:58:30.391Z,4.27
2022-08-29T15:01:37.511Z,4.55
2022-08-29T15:04:43.277Z,4.71
2022-08-29T15:07:49.235Z,4.30
2022-08-29T15:10:57.576Z,4.61
2022-08-29T15:14:04.645Z,4.51
2022-08-29T15:17:10.888Z,7.35
2022-08-29T15:20:35.443Z,6.62
2022-08-29T15:23:42.183Z,4.11
2022-08-29T15:26:53.162Z,4.82
2022-08-29T15:30:00.141Z,4.42
2022-08-29T15:33:06.344Z,4.23
2022-08-29T15:36:12.717Z,4.11
2022-08-29T15:39:18.305Z,4.32
2022-08-29T15:42:30.510Z,3.81
2022-08-29T15:45:36.022Z,3.82
2022-08-29T15:48:42.197Z,3.81
2022-08-29T15:51:47.788Z,3.92
2022-08-29T15:54:53.792Z,4.07
2022-08-29T15:58:01.946Z,3.96
2022-08-29T16:01:08.317Z,3.94
2022-08-29T16:04:16.541Z,3.97
2022-08-29T16:07:22.088Z,3.96
2022-08-29T16:10:27.784Z,3.88
2022-08-29T16:13:35.925Z,4.25
2022-08-29T16:16:41.466Z,5.10
2022-08-29T16:19:46.967Z,4.36
2022-08-29T16:22:52.674Z,4.00
2022-08-29T16:25:58.189Z,3.74
2022-08-29T16:29:07.623Z,3.73
2022-08-29T16:32:13.217Z,3.69
2022-08-29T16:35:19.319Z,3.77
2022-08-29T16:38:24.858Z,3.59
2022-08-29T16:41:30.421Z,3.66
2022-08-29T16:44:38.566Z,3.79
2022-08-29T16:47:44.142Z,3.51
2022-08-29T16:50:50.167Z,3.63
2022-08-29T16:53:55.839Z,3.85
2022-08-29T16:57:01.609Z,3.62
2022-08-29T17:00:14.141Z,3.95
2022-08-29T17:03:20.341Z,3.88
2022-08-29T17:06:28.608Z,3.64
2022-08-29T17:09:31.445Z,3.99
2022-08-29T17:12:34.262Z,4.28
2022-08-29T17:15:40.088Z,4.15
2022-08-29T17:18:45.710Z,4.46
2022-08-29T17:21:52.020Z,4.15
2022-08-29T17:24:57.580Z,4.45
2022-08-29T17:28:19.110Z,4.78
2022-08-29T17:31:28.477Z,7.84
2022-08-29T17:34:34.072Z,6.07
2022-08-29T17:37:39.940Z,5.28
2022-08-29T17:40:46.721Z,5.56
2022-08-29T17:43:54.818Z,4.98
2022-08-29T17:47:03.387Z,5.70
2022-08-29T17:50:10.522Z,7.50
2022-08-29T17:53:16.800Z,7.83
2022-08-29T17:56:32.840Z,6.46
2022-08-29T17:59:39.887Z,10.89
2022-08-29T18:02:49.273Z,10.51
2022-08-29T18:05:54.848Z,7.49
2022-08-29T18:09:06.932Z,6.41
2022-08-29T18:12:14.619Z,6.13
2022-08-29T18:15:21.488Z,6.44
2022-08-29T18:18:32.272Z,7.92
2022-08-29T18:21:41.207Z,9.59
2022-08-29T18:24:49.095Z,9.55
2022-08-29T18:27:54.688Z,8.86
2022-08-29T18:31:01.550Z,7.71
2022-08-29T18:34:11.323Z,7.31
2022-08-29T18:37:31.474Z,7.59
2022-08-29T18:40:39.902Z,7.70
2022-08-29T18:43:49.850Z,7.35
2022-08-29T18:46:55.792Z,7.66
2022-08-29T18:50:16.462Z,7.96
2022-08-29T18:53:26.920Z,7.90
2022-08-29T18:56:34.425Z,9.67
2022-08-29T18:59:45.788Z,8.88
2022-08-29T19:02:51.409Z,8.42
2022-08-29T19:06:00.840Z,8.96
2022-08-29T19:09:18.106Z,9.83
2022-08-29T19:12:26.914Z,10.04
2022-08-29T19:15:45.537Z,9.25
2022-08-29T19:18:53.691Z,10.15
2022-08-29T19:22:01.196Z,10.19
2022-08-29T19:25:13.571Z,10.49
2022-08-29T19:28:20.955Z,11.82
2022-08-29T19:31:27.953Z,11.90
2022-08-29T19:34:41.038Z,13.51
2022-08-29T19:37:52.147Z,17.09
2022-08-29T19:40:58.210Z,16.99
2022-08-29T19:44:10.798Z,17.08
2022-08-29T19:47:20.824Z,15.00
2022-08-29T19:50:26.859Z,13.50
2022-08-29T19:53:35.161Z,12.88
2022-08-29T19:56:46.831Z,12.12
2022-08-29T19:59:52.637Z,11.24
2022-08-29T20:03:00.694Z,11.80
2022-08-29T20:06:09.041Z,11.76
2022-08-29T20:09:17.395Z,10.95
2022-08-29T20:12:22.944Z,11.57
2022-08-29T20:15:31.208Z,12.48
2022-08-29T20:18:37.627Z,16.41
2022-08-29T20:21:52.066Z,17.43
2022-08-29T20:25:06.684Z,17.78
2022-08-29T20:28:17.815Z,14.58
2022-08-29T20:31:25.814Z,15.72
2022-08-29T20:34:31.698Z,17.43
2022-08-29T20:37:37.600Z,15.79
2022-08-29T20:40:47.222Z,14.56
2022-08-29T20:43:57.285Z,13.38
2022-08-29T20:47:04.661Z,12.97
2022-08-29T20:50:16.082Z,12.62
2022-08-29T20:53:31.579Z,11.01
2022-08-29T20:56:41.153Z,10.64
2022-08-29T20:59:46.793Z,16.80
2022-08-29T21:03:05.503Z,13.71
2022-08-29T21:06:11.410Z,21.34
2022-08-29T21:09:17.119Z,36.15
2022-08-29T21:12:27.684Z,42.80
2022-08-29T21:15:33.418Z,26.63
2022-08-29T21:18:39.155Z,13.87
2022-08-29T21:21:51.529Z,9.99
2022-08-29T21:24:58.292Z,10.10
2022-08-29T21:28:07.580Z,11.12
2022-08-29T21:31:17.239Z,11.35
2022-08-29T21:34:32.862Z,11.22
2022-08-29T21:37:41.397Z,9.54
2022-08-29T21:40:51.691Z,9.21
2022-08-29T21:44:00.176Z,10.64
2022-08-29T21:47:10.018Z,12.01
2022-08-29T21:50:23.162Z,11.96
2022-08-29T21:53:32.463Z,11.87
2022-08-29T21:56:38.720Z,12.11
2022-08-29T21:59:47.203Z,12.38
2022-08-29T22:02:52.851Z,11.67
2022-08-29T22:05:58.454Z,11.78
2022-08-29T22:09:32.099Z,10.84
2022-08-29T22:12:43.929Z,10.79
2022-08-29T22:16:05.341Z,18.73
2022-08-29T22:19:15.319Z,19.13
2022-08-29T22:22:20.896Z,10.39
2022-08-29T22:25:27.200Z,9.72
2022-08-29T22:28:32.914Z,10.75
2022-08-29T22:31:42.696Z,13.19
2022-08-29T22:34:49.068Z,13.08
2022-08-29T22:37:55.074Z,13.81
2022-08-29T22:41:01.417Z,14.52
2022-08-29T22:44:59.876Z,14.96
2022-08-29T22:47:39.061Z,16.48
2022-08-29T22:50:58.272Z,16.94
2022-08-29T22:54:16.611Z,12.72
2022-08-29T22:57:23.985Z,12.91
2022-08-29T23:00:32.697Z,12.27
2022-08-29T23:03:40.925Z,11.69
2022-08-29T23:06:47.797Z,10.95
2022-08-29T23:09:53.581Z,9.80
2022-08-29T23:12:59.172Z,10.02
2022-08-29T23:16:05.090Z,9.78
2022-08-29T23:19:13.288Z,9.34
2022-08-29T23:22:19.093Z,9.66
2022-08-29T23:25:24.979Z,11.85
2022-08-29T23:28:31.931Z,14.94
2022-08-29T23:31:38.391Z,13.62
2022-08-29T23:34:52.453Z,12.74
2022-08-29T23:37:58.061Z,12.05
2022-08-29T23:41:04.865Z,12.13
2022-08-29T23:44:10.529Z,12.61
2022-08-29T23:47:16.164Z,15.54
2022-08-29T23:50:24.437Z,12.65
2022-08-29T23:53:30.051Z,11.07
2022-08-29T23:56:35.709Z,10.13
2022-08-29T23:59:53.734Z,10.79
